createdAt,value
2018-12-05T00:00:04.057Z,14.93
2018-12-05T00:02:32.642Z,18.12
2018-12-05T00:05:01.570Z,14.20
2018-12-05T00:07:30.003Z,14.85
2018-12-05T00:09:58.372Z,15.90
2018-12-05T00:12:26.750Z,14.40
2018-12-05T00:14:55.122Z,17.70
2018-12-05T00:17:23.805Z,14.90
2018-12-05T00:19:52.301Z,14.83
2018-12-05T00:22:20.874Z,15.70
2018-12-05T00:24:49.262Z,17.07
2018-12-05T00:27:17.633Z,15.55
2018-12-05T00:29:46.048Z,16.15
2018-12-05T00:32:14.421Z,17.92
2018-12-05T00:34:42.810Z,15.88
2018-12-05T00:37:11.192Z,16.05
2018-12-05T00:39:39.553Z,17.23
2018-12-05T00:42:07.920Z,15.13
2018-12-05T00:44:36.616Z,16.45
2018-12-05T00:47:04.972Z,14.83
2018-12-05T00:49:33.344Z,16.60
2018-12-05T00:52:01.760Z,14.03
2018-12-05T00:54:30.459Z,15.05
2018-12-05T00:56:58.845Z,14.93
2018-12-05T00:59:27.227Z,14.95
2018-12-05T01:01:55.615Z,17.27
2018-12-05T01:04:24.256Z,16.02
2018-12-05T01:06:52.671Z,16.62
2018-12-05T01:09:21.049Z,16.10
2018-12-05T01:11:49.496Z,14.93
2018-12-05T01:14:18.130Z,16.32
2018-12-05T01:16:46.490Z,15.23
2018-12-05T01:19:14.861Z,14.20
2018-12-05T01:21:43.273Z,16.57
2018-12-05T01:24:11.636Z,14.13
2018-12-05T01:26:39.986Z,15.45
2018-12-05T01:29:08.387Z,16.62
2018-12-05T01:31:37.675Z,15.70
2018-12-05T01:34:06.050Z,14.85
2018-12-05T01:36:34.452Z,15.05
2018-12-05T01:39:04.063Z,14.33
2018-12-05T01:41:32.706Z,14.78
2018-12-05T01:44:01.115Z,17.20
2018-12-05T01:46:29.469Z,16.57
2018-12-05T01:48:57.872Z,13.95
2018-12-05T01:51:26.377Z,14.10
2018-12-05T01:53:54.751Z,15.95
2018-12-05T01:56:23.178Z,16.07
2018-12-05T01:58:51.705Z,14.40
2018-12-05T02:01:20.156Z,15.63
2018-12-05T02:03:48.533Z,14.70
2018-12-05T02:06:16.940Z,16.02
2018-12-05T02:08:45.481Z,14.73
2018-12-05T02:11:13.865Z,15.75
2018-12-05T02:13:42.261Z,13.70
2018-12-05T02:16:10.622Z,13.70
2018-12-05T02:18:38.979Z,14.87
2018-12-05T02:21:07.372Z,14.70
2018-12-05T02:23:35.736Z,15.38
2018-12-05T02:26:04.567Z,16.07
2018-12-05T02:28:32.942Z,17.25
2018-12-05T02:31:01.295Z,16.50
2018-12-05T02:33:29.677Z,16.67
2018-12-05T02:35:58.364Z,16.67
2018-12-05T02:38:26.720Z,16.27
2018-12-05T02:40:55.379Z,16.62
2018-12-05T02:43:23.779Z,16.70
2018-12-05T02:45:52.151Z,17.90
2018-12-05T02:48:21.770Z,18.60
2018-12-05T02:50:50.157Z,18.27
2018-12-05T02:53:18.513Z,17.20
2018-12-05T02:55:46.889Z,16.57
2018-12-05T02:58:15.283Z,17.98
2018-12-05T03:00:43.655Z,16.40
2018-12-05T03:03:12.051Z,15.68
2018-12-05T03:05:40.471Z,16.57
2018-12-05T03:08:08.828Z,16.48
2018-12-05T03:10:37.186Z,17.57
2018-12-05T03:13:05.571Z,16.20
2018-12-05T03:15:33.943Z,14.45
2018-12-05T03:18:02.625Z,15.55
2018-12-05T03:20:31.123Z,15.43
2018-12-05T03:22:59.503Z,16.02
2018-12-05T03:25:28.441Z,15.32
2018-12-05T03:27:56.879Z,15.93
2018-12-05T03:30:25.244Z,16.30
2018-12-05T03:32:53.630Z,13.72
2018-12-05T03:35:26.749Z,15.28
2018-12-05T03:37:55.178Z,14.47
2018-12-05T03:40:23.532Z,14.55
2018-12-05T03:42:51.915Z,15.68
2018-12-05T03:45:20.306Z,15.90
2018-12-05T03:47:48.667Z,15.70
2018-12-05T03:50:17.412Z,15.90
2018-12-05T03:52:45.916Z,15.03
2018-12-05T03:55:14.296Z,15.83
2018-12-05T03:57:42.728Z,14.07
2018-12-05T04:00:11.225Z,15.72
2018-12-05T04:02:39.883Z,15.30
2018-12-05T04:05:08.477Z,15.18
2018-12-05T04:07:36.828Z,15.32
2018-12-05T04:10:05.437Z,14.83
2018-12-05T04:12:40.490Z,15.32
2018-12-05T04:15:04.446Z,14.10
2018-12-05T04:17:32.808Z,16.60
2018-12-05T04:20:01.208Z,16.37
2018-12-05T04:22:29.732Z,16.82
2018-12-05T04:24:58.100Z,15.00
2018-12-05T04:27:27.058Z,15.48
2018-12-05T04:29:55.623Z,16.05
2018-12-05T04:32:23.997Z,16.65
2018-12-05T04:34:52.417Z,16.15
2018-12-05T04:37:20.784Z,15.75
2018-12-05T04:39:49.165Z,17.15
2018-12-05T04:42:17.568Z,17.10
2018-12-05T04:44:45.953Z,16.73
2018-12-05T04:47:14.311Z,17.37
2018-12-05T04:49:42.701Z,18.15
2018-12-05T04:52:11.064Z,14.13
2018-12-05T04:54:39.433Z,15.15
2018-12-05T04:57:07.821Z,15.90
2018-12-05T04:59:36.226Z,17.45
2018-12-05T05:02:05.333Z,16.50
2018-12-05T05:04:33.723Z,14.18
2018-12-05T05:07:02.078Z,15.72
2018-12-05T05:09:30.440Z,15.10
2018-12-05T05:11:59.092Z,17.45
2018-12-05T05:14:27.454Z,14.00
2018-12-05T05:16:55.815Z,13.20
2018-12-05T05:19:24.205Z,13.70
2018-12-05T05:21:52.590Z,15.60
2018-12-05T05:24:20.947Z,14.00
2018-12-05T05:26:49.369Z,14.45
2018-12-05T05:29:17.734Z,14.45
2018-12-05T05:31:46.088Z,13.55
2018-12-05T05:34:14.480Z,15.68
2018-12-05T05:36:42.864Z,13.30
2018-12-05T05:39:11.236Z,13.90
2018-12-05T05:41:39.619Z,15.03
2018-12-05T05:44:07.988Z,13.20
2018-12-05T05:46:36.358Z,14.03
2018-12-05T05:49:05.006Z,13.13
2018-12-05T05:51:33.533Z,13.85
2018-12-05T05:54:01.895Z,12.25
2018-12-05T05:56:30.320Z,11.45
2018-12-05T05:58:58.693Z,14.30
2018-12-05T06:01:27.361Z,12.47
2018-12-05T06:03:55.744Z,14.78
2018-12-05T06:06:24.229Z,12.95
2018-12-05T06:08:52.593Z,12.98
2018-12-05T06:11:20.988Z,11.50
2018-12-05T06:13:49.353Z,11.93
2018-12-05T06:16:17.729Z,12.82
2018-12-05T06:18:46.337Z,11.83
2018-12-05T06:21:14.842Z,12.90
2018-12-05T06:23:43.189Z,13.15
2018-12-05T06:26:11.586Z,12.60
2018-12-05T06:28:39.945Z,13.05
2018-12-05T06:31:08.324Z,14.40
2018-12-05T06:33:36.715Z,11.40
2018-12-05T06:36:05.093Z,10.53
2018-12-05T06:38:33.479Z,12.45
2018-12-05T06:41:01.886Z,11.70
2018-12-05T06:43:30.254Z,11.57
2018-12-05T06:45:58.825Z,12.10
2018-12-05T06:48:27.233Z,10.53
2018-12-05T06:50:55.591Z,10.30
2018-12-05T06:53:23.954Z,9.80
2018-12-05T06:55:52.372Z,10.30
2018-12-05T06:58:20.868Z,11.10
2018-12-05T07:00:49.324Z,10.05
2018-12-05T07:03:17.742Z,10.35
2018-12-05T07:05:46.111Z,9.93
2018-12-05T07:08:14.464Z,11.00
2018-12-05T07:10:42.864Z,9.40
2018-12-05T07:13:11.228Z,9.50
2018-12-05T07:15:39.697Z,9.70
2018-12-05T07:18:08.139Z,9.30
2018-12-05T07:20:36.504Z,10.35
2018-12-05T07:23:04.866Z,9.48
2018-12-05T07:25:33.240Z,9.30
2018-12-05T07:28:01.718Z,8.73
2018-12-05T07:30:30.097Z,8.93
2018-12-05T07:32:58.914Z,9.70
2018-12-05T07:35:27.287Z,10.25
2018-12-05T07:37:55.641Z,8.23
2018-12-05T07:40:24.031Z,9.38
2018-12-05T07:42:52.472Z,9.68
2018-12-05T07:45:20.838Z,10.03
2018-12-05T07:47:49.232Z,9.30
2018-12-05T07:50:17.648Z,9.05
2018-12-05T07:52:46.041Z,8.13
2018-12-05T07:55:14.444Z,9.28
2018-12-05T07:57:42.820Z,11.40
2018-12-05T08:00:11.546Z,9.90
2018-12-05T08:02:40.252Z,9.73
2018-12-05T08:05:08.667Z,9.73
2018-12-05T08:07:37.040Z,9.13
2018-12-05T08:10:06.266Z,9.43
2018-12-05T08:12:34.629Z,10.95
2018-12-05T08:15:03.016Z,9.85
2018-12-05T08:17:31.441Z,10.95
2018-12-05T08:19:59.808Z,9.88
2018-12-05T08:22:28.214Z,10.03
2018-12-05T08:24:56.624Z,9.90
2018-12-05T08:27:25.007Z,8.98
2018-12-05T08:29:53.371Z,9.85
2018-12-05T08:32:21.765Z,10.35
2018-12-05T08:34:50.590Z,11.30
2018-12-05T08:37:19.372Z,9.78
2018-12-05T08:39:47.774Z,9.00
2018-12-05T08:42:16.143Z,10.40
2018-12-05T08:44:44.626Z,9.88
2018-12-05T08:47:13.009Z,9.60
2018-12-05T08:49:41.372Z,11.90
2018-12-05T08:52:09.732Z,11.08
2018-12-05T08:54:38.119Z,9.38
2018-12-05T08:57:06.667Z,10.38
2018-12-05T08:59:35.351Z,9.73
2018-12-05T09:02:03.755Z,8.58
2018-12-05T09:04:32.407Z,11.40
2018-12-05T09:07:00.783Z,8.85
2018-12-05T09:09:29.196Z,9.20
2018-12-05T09:11:57.785Z,9.78
2018-12-05T09:14:28.910Z,10.50
2018-12-05T09:16:56.590Z,10.50
2018-12-05T09:19:25.417Z,9.35
2018-12-05T09:21:54.119Z,9.85
2018-12-05T09:24:22.517Z,11.75
2018-12-05T09:26:51.012Z,11.53
2018-12-05T09:29:19.384Z,11.43
2018-12-05T09:31:48.030Z,9.58
2018-12-05T09:34:16.391Z,10.63
2018-12-05T09:36:45.339Z,9.93
2018-12-05T09:39:13.726Z,9.88
2018-12-05T09:41:42.097Z,11.22
2018-12-05T09:44:10.458Z,10.55
2018-12-05T09:46:38.859Z,10.03
2018-12-05T09:49:07.222Z,11.22
2018-12-05T09:51:35.903Z,9.40
2018-12-05T09:54:04.335Z,10.10
2018-12-05T09:56:32.716Z,9.83
2018-12-05T09:59:01.337Z,12.33
2018-12-05T10:01:29.720Z,8.68
2018-12-05T10:03:58.082Z,9.70
2018-12-05T10:06:26.513Z,10.08
2018-12-05T10:08:54.929Z,9.73
2018-12-05T10:11:23.335Z,11.20
2018-12-05T10:13:51.719Z,11.50
2018-12-05T10:16:20.117Z,10.38
2018-12-05T10:18:48.489Z,10.68
2018-12-05T10:21:16.927Z,9.98
2018-12-05T10:23:45.697Z,11.33
2018-12-05T10:26:14.104Z,11.22
2018-12-05T10:28:42.484Z,10.45
2018-12-05T10:31:11.001Z,11.00
2018-12-05T10:33:39.385Z,11.73
2018-12-05T10:36:07.966Z,11.50
2018-12-05T10:38:36.367Z,11.15
2018-12-05T10:41:04.758Z,9.88
2018-12-05T10:43:34.558Z,9.65
2018-12-05T10:46:03.597Z,10.08
2018-12-05T10:48:31.977Z,10.60
2018-12-05T10:51:00.351Z,10.03
2018-12-05T10:53:28.732Z,11.43
2018-12-05T10:55:57.095Z,9.05
2018-12-05T10:58:25.460Z,12.05
2018-12-05T11:03:06.848Z,10.58
2018-12-05T11:07:46.172Z,9.95
2018-12-05T11:10:20.024Z,9.98
2018-12-05T11:12:53.676Z,8.90
2018-12-05T11:15:27.326Z,11.88
2018-12-05T11:18:00.866Z,7.55
2018-12-05T11:20:34.527Z,7.50
2018-12-05T11:23:08.302Z,7.67
2018-12-05T11:25:36.721Z,8.05
2018-12-05T11:28:05.240Z,7.08
2018-12-05T11:30:33.635Z,7.05
2018-12-05T11:33:02.312Z,7.70
2018-12-05T11:35:30.721Z,6.97
2018-12-05T11:37:59.117Z,8.08
2018-12-05T11:40:27.665Z,7.60
2018-12-05T11:42:56.141Z,6.60
2018-12-05T11:45:24.560Z,6.67
2018-12-05T11:47:52.967Z,6.20
2018-12-05T11:50:21.349Z,6.92
2018-12-05T11:52:49.742Z,6.45
2018-12-05T11:55:18.323Z,6.53
2018-12-05T11:57:46.795Z,7.08
2018-12-05T12:00:15.369Z,6.72
2018-12-05T12:02:43.761Z,5.30
2018-12-05T12:05:12.414Z,6.60
2018-12-05T12:07:41.400Z,6.12
2018-12-05T12:10:09.922Z,8.25
2018-12-05T12:12:43.966Z,6.08
2018-12-05T12:15:12.455Z,7.08
2018-12-05T12:17:41.950Z,8.03
2018-12-05T12:20:10.450Z,7.97
2018-12-05T12:22:39.137Z,6.58
2018-12-05T12:25:07.883Z,9.05
2018-12-05T12:27:36.270Z,11.20
2018-12-05T12:30:05.164Z,9.75
2018-12-05T12:32:33.650Z,8.53
2018-12-05T12:35:02.090Z,10.40
2018-12-05T12:37:30.505Z,13.22
2018-12-05T12:39:59.180Z,12.93
2018-12-05T12:42:27.654Z,14.80
2018-12-05T12:44:56.119Z,13.43
2018-12-05T12:47:24.702Z,7.80
2018-12-05T12:49:53.107Z,8.43
2018-12-05T12:52:21.784Z,14.33
2018-12-05T12:54:50.156Z,11.00
2018-12-05T12:57:18.548Z,8.20
2018-12-05T12:59:47.170Z,13.68
2018-12-05T13:02:15.688Z,9.53
2018-12-05T13:04:44.298Z,10.43
2018-12-05T13:07:12.736Z,9.50
2018-12-05T13:09:41.121Z,6.55
2018-12-05T13:12:11.512Z,7.30
2018-12-05T13:14:39.957Z,6.53
2018-12-05T13:17:08.459Z,6.22
2018-12-05T13:19:36.853Z,7.03
2018-12-05T13:22:05.296Z,6.62
2018-12-05T13:24:33.682Z,8.10
2018-12-05T13:27:02.069Z,8.75
2018-12-05T13:29:30.480Z,6.47
2018-12-05T13:31:58.906Z,8.13
2018-12-05T13:34:27.317Z,8.70
2018-12-05T13:36:56.008Z,7.25
2018-12-05T13:39:24.692Z,8.50
2018-12-05T13:41:53.100Z,8.10
2018-12-05T13:44:21.520Z,7.17
2018-12-05T13:46:49.901Z,8.30
2018-12-05T13:49:18.684Z,7.60
2018-12-05T13:51:47.097Z,5.80
2018-12-05T13:54:15.492Z,6.85
2018-12-05T13:56:43.885Z,7.90
2018-12-05T13:59:12.277Z,6.58
2018-12-05T14:01:40.812Z,6.83
2018-12-05T14:04:09.470Z,5.55
2018-12-05T14:06:37.888Z,7.30
2018-12-05T14:09:07.568Z,5.72
2018-12-05T14:11:35.940Z,7.30
2018-12-05T14:14:04.475Z,5.90
2018-12-05T14:16:32.844Z,5.97
2018-12-05T14:19:01.235Z,5.92
2018-12-05T14:21:29.643Z,6.30
2018-12-05T14:23:58.044Z,4.72
2018-12-05T14:26:26.691Z,4.92
2018-12-05T14:28:55.080Z,4.95
2018-12-05T14:31:23.443Z,5.12
2018-12-05T14:33:51.825Z,5.25
2018-12-05T14:36:20.562Z,5.75
2018-12-05T14:38:48.946Z,5.58
2018-12-05T14:41:17.624Z,4.55
2018-12-05T14:43:46.279Z,3.72
2018-12-05T14:46:14.658Z,5.05
2018-12-05T14:48:43.042Z,4.87
2018-12-05T14:51:11.531Z,5.72
2018-12-05T14:53:39.950Z,5.08
2018-12-05T14:56:08.451Z,4.72
2018-12-05T14:58:36.864Z,4.67
2018-12-05T15:01:05.249Z,3.67
2018-12-05T15:03:34.034Z,5.60
2018-12-05T15:06:02.495Z,4.58
2018-12-05T15:08:30.869Z,5.40
2018-12-05T15:10:59.338Z,6.20
2018-12-05T15:13:27.780Z,6.35
2018-12-05T15:15:56.194Z,5.65
2018-12-05T15:18:24.581Z,6.40
2018-12-05T15:20:52.983Z,5.20
2018-12-05T15:23:21.364Z,5.35
2018-12-05T15:25:50.229Z,4.53
2018-12-05T15:28:18.644Z,5.20
2018-12-05T15:30:47.012Z,3.98
2018-12-05T15:33:15.500Z,4.92
2018-12-05T15:35:43.905Z,5.25
2018-12-05T15:38:12.278Z,6.20
2018-12-05T15:40:40.775Z,4.95
2018-12-05T15:43:09.431Z,5.78
2018-12-05T15:45:37.848Z,6.45
2018-12-05T15:48:06.249Z,5.55
2018-12-05T15:50:34.653Z,4.85
2018-12-05T15:53:03.053Z,5.08
2018-12-05T15:55:31.441Z,5.97
2018-12-05T15:57:59.838Z,4.28
2018-12-05T16:00:28.368Z,4.45
2018-12-05T16:02:56.762Z,5.20
2018-12-05T16:05:25.873Z,5.00
2018-12-05T16:07:54.236Z,4.35
2018-12-05T16:10:22.624Z,5.25
2018-12-05T16:12:51.068Z,5.25
2018-12-05T16:15:19.453Z,5.80
2018-12-05T16:17:47.824Z,4.83
2018-12-05T16:20:16.500Z,4.95
2018-12-05T16:22:45.153Z,5.45
2018-12-05T16:25:13.530Z,7.87
2018-12-05T16:27:41.922Z,6.05
2018-12-05T16:30:10.555Z,6.62
2018-12-05T16:32:38.939Z,5.92
2018-12-05T16:35:07.560Z,6.20
2018-12-05T16:37:36.254Z,5.58
2018-12-05T16:40:05.740Z,6.62
2018-12-05T16:42:34.266Z,6.50
2018-12-05T16:45:02.683Z,5.97
2018-12-05T16:47:31.094Z,5.83
2018-12-05T16:49:59.543Z,6.75
2018-12-05T16:52:28.126Z,7.20
2018-12-05T16:54:56.840Z,6.33
2018-12-05T16:57:25.259Z,7.97
2018-12-05T16:59:53.722Z,5.75
2018-12-05T17:02:22.120Z,7.22
2018-12-05T17:04:50.731Z,7.35
2018-12-05T17:07:19.123Z,7.30
2018-12-05T17:09:47.529Z,8.00
2018-12-05T17:12:16.132Z,7.92
2018-12-05T17:14:44.751Z,8.58
2018-12-05T17:17:13.130Z,7.50
2018-12-05T17:19:41.600Z,8.85
2018-12-05T17:22:10.005Z,8.13
2018-12-05T17:24:38.434Z,8.53
2018-12-05T17:27:06.846Z,8.73
2018-12-05T17:29:35.253Z,7.53
2018-12-05T17:32:03.878Z,7.65
2018-12-05T17:34:32.324Z,7.58
2018-12-05T17:37:00.749Z,9.43
2018-12-05T17:39:29.147Z,8.40
2018-12-05T17:41:57.590Z,9.98
2018-12-05T17:44:26.314Z,7.37
2018-12-05T17:46:54.942Z,9.90
2018-12-05T17:49:23.604Z,8.78
2018-12-05T17:51:52.084Z,10.08
2018-12-05T17:54:20.505Z,9.35
2018-12-05T17:56:48.912Z,10.32
2018-12-05T17:59:17.300Z,9.40
2018-12-05T18:01:45.791Z,9.98
2018-12-05T18:04:14.201Z,10.00
2018-12-05T18:06:42.601Z,10.15
2018-12-05T18:09:11.016Z,10.85
2018-12-05T18:11:39.774Z,11.30
2018-12-05T18:14:08.311Z,10.93
2018-12-05T18:16:36.751Z,10.63
2018-12-05T18:19:05.664Z,10.20
2018-12-05T18:21:34.111Z,10.18
2018-12-05T18:24:02.760Z,10.40
2018-12-05T18:26:31.201Z,11.08
2018-12-05T18:29:00.434Z,11.55
2018-12-05T18:31:28.868Z,12.40
2018-12-05T18:33:57.521Z,10.10
2018-12-05T18:36:25.923Z,12.75
2018-12-05T18:38:54.330Z,11.00
2018-12-05T18:41:22.755Z,12.13
2018-12-05T18:43:51.157Z,11.48
2018-12-05T18:46:19.753Z,12.30
2018-12-05T18:48:48.204Z,13.00
2018-12-05T18:51:16.593Z,11.40
2018-12-05T18:53:45.246Z,11.63
2018-12-05T18:56:13.931Z,11.93
2018-12-05T18:58:42.503Z,11.22
2018-12-05T19:01:10.909Z,10.63
2018-12-05T19:03:39.439Z,11.45
2018-12-05T19:06:07.984Z,13.50
2018-12-05T19:08:36.374Z,13.50
2018-12-05T19:11:05.263Z,12.20
2018-12-05T19:13:35.940Z,13.75
2018-12-05T19:16:04.896Z,11.93
2018-12-05T19:18:33.329Z,11.70
2018-12-05T19:21:01.736Z,12.58
2018-12-05T19:23:30.379Z,14.47
2018-12-05T19:25:58.819Z,11.18
2018-12-05T19:28:27.184Z,11.80
2018-12-05T19:30:55.820Z,11.48
2018-12-05T19:33:24.246Z,12.28
2018-12-05T19:35:52.612Z,10.63
2018-12-05T19:38:21.009Z,12.20
2018-12-05T19:40:49.451Z,11.60
2018-12-05T19:43:17.864Z,12.47
2018-12-05T19:45:46.260Z,12.03
2018-12-05T19:48:14.686Z,11.20
2018-12-05T19:50:43.478Z,11.93
2018-12-05T19:53:11.901Z,10.85
2018-12-05T19:55:40.356Z,10.85
2018-12-05T19:58:08.755Z,10.05
2018-12-05T20:00:37.320Z,11.00
2018-12-05T20:03:06.027Z,11.28
2018-12-05T20:05:34.427Z,13.00
2018-12-05T20:08:03.267Z,10.75
2018-12-05T20:10:31.673Z,11.28
2018-12-05T20:13:00.433Z,12.28
2018-12-05T20:15:28.827Z,10.23
2018-12-05T20:17:57.482Z,10.72
2018-12-05T20:20:26.207Z,11.03
2018-12-05T20:22:54.597Z,11.55
2018-12-05T20:25:23.600Z,11.70
2018-12-05T20:27:52.008Z,12.43
2018-12-05T20:30:20.400Z,11.00
2018-12-05T20:32:48.835Z,11.00
2018-12-05T20:35:17.229Z,11.33
2018-12-05T20:37:45.635Z,12.88
2018-12-05T20:40:14.166Z,10.65
2018-12-05T20:42:42.570Z,10.90
2018-12-05T20:45:11.083Z,10.00
2018-12-05T20:47:39.506Z,11.30
2018-12-05T20:50:07.934Z,11.00
2018-12-05T20:52:36.333Z,11.97
2018-12-05T20:55:05.096Z,11.95
2018-12-05T20:57:33.500Z,10.75
2018-12-05T21:00:01.906Z,11.85
2018-12-05T21:02:30.523Z,10.75
2018-12-05T21:04:59.161Z,9.48
2018-12-05T21:07:27.568Z,11.70
2018-12-05T21:09:55.993Z,9.35
2018-12-05T21:12:24.529Z,9.83
2018-12-05T21:14:52.926Z,10.58
2018-12-05T21:17:21.363Z,8.70
2018-12-05T21:19:50.043Z,9.85
2018-12-05T21:22:18.486Z,9.68
2018-12-05T21:24:47.695Z,9.45
2018-12-05T21:27:16.120Z,8.25
2018-12-05T21:29:44.536Z,7.37
2018-12-05T21:32:12.999Z,9.25
2018-12-05T21:34:41.439Z,8.28
2018-12-05T21:37:09.850Z,8.08
2018-12-05T21:39:38.285Z,8.05
2018-12-05T21:42:07.338Z,7.60
2018-12-05T21:44:35.714Z,7.80
2018-12-05T21:47:04.828Z,5.22
2018-12-05T21:49:33.225Z,7.40
2018-12-05T21:52:01.804Z,6.60
2018-12-05T21:54:30.493Z,7.87
2018-12-05T21:56:59.449Z,6.42
2018-12-05T21:59:27.900Z,7.62
2018-12-05T22:01:56.439Z,5.97
2018-12-05T22:04:24.813Z,5.75
2018-12-05T22:06:53.235Z,6.45
2018-12-05T22:09:21.721Z,5.67
2018-12-05T22:11:50.099Z,6.35
2018-12-05T22:14:18.632Z,6.00
2018-12-05T22:16:47.155Z,6.13
2018-12-05T22:19:15.531Z,5.37
2018-12-05T22:21:43.974Z,4.03
2018-12-05T22:24:12.489Z,5.10
2018-12-05T22:26:40.902Z,4.17
2018-12-05T22:29:09.297Z,7.72
2018-12-05T22:31:37.699Z,5.03
2018-12-05T22:34:06.670Z,3.90
2018-12-05T22:36:35.059Z,5.33
2018-12-05T22:39:05.581Z,3.70
2018-12-05T22:41:33.968Z,5.35
2018-12-05T22:44:02.677Z,4.80
2018-12-05T22:46:31.089Z,4.95
2018-12-05T22:48:59.471Z,6.50
2018-12-05T22:51:27.982Z,5.20
2018-12-05T22:53:56.393Z,5.78
2018-12-05T22:56:24.766Z,4.67
2018-12-05T22:58:53.158Z,5.22
2018-12-05T23:01:21.968Z,4.72
2018-12-05T23:03:50.406Z,5.53
2018-12-05T23:06:19.326Z,4.50
2018-12-05T23:08:47.722Z,3.40
2018-12-05T23:11:16.437Z,4.95
2018-12-05T23:13:45.060Z,4.78
2018-12-05T23:16:13.450Z,5.27
2018-12-05T23:18:41.830Z,5.20
2018-12-05T23:21:10.217Z,5.47
2018-12-05T23:23:38.677Z,4.92
2018-12-05T23:26:07.097Z,4.43
2018-12-05T23:28:35.652Z,4.97
2018-12-05T23:31:04.288Z,5.05
2018-12-05T23:33:32.666Z,4.33
2018-12-05T23:36:01.187Z,6.90
2018-12-05T23:38:29.597Z,4.20
2018-12-05T23:40:57.979Z,4.35
2018-12-05T23:43:26.386Z,5.65
2018-12-05T23:45:54.939Z,4.20
2018-12-05T23:48:23.320Z,5.58
2018-12-05T23:50:51.723Z,5.13
2018-12-05T23:53:20.401Z,6.22
2018-12-05T23:55:48.766Z,5.07
2018-12-05T23:58:17.171Z,5.28
